sensor_id;sensor_type;location;lat;lon;timestamp;P1;durP1;ratioP1;P2;durP2;ratioP2
4597;SDS011;62772;48.646;8.906;2022-11-20T00:00:52;16.13;;;8.80;;
4597;SDS011;62772;48.646;8.906;2022-11-20T00:05:52;16.10;;;8.30;;
4597;SDS011;62772;48.646;8.906;2022-11-20T00:10:56;14.17;;;7.40;;
4597;SDS011;62772;48.646;8.906;2022-11-20T00:15:57;11.47;;;6.43;;
4597;SDS011;62772;48.646;8.906;2022-11-20T00:21:01;16.90;;;7.63;;
4597;SDS011;62772;48.646;8.906;2022-11-20T00:26:06;18.20;;;8.53;;
4597;SDS011;62772;48.646;8.906;2022-11-20T00:31:09;16.43;;;7.27;;
4597;SDS011;62772;48.646;8.906;2022-11-20T00:36:11;13.50;;;6.63;;
4597;SDS011;62772;48.646;8.906;2022-11-20T00:41:17;14.33;;;6.70;;
4597;SDS011;62772;48.646;8.906;2022-11-20T00:46:18;11.07;;;6.07;;
4597;SDS011;62772;48.646;8.906;2022-11-20T00:51:20;13.40;;;5.70;;
4597;SDS011;62772;48.646;8.906;2022-11-20T00:56:25;8.30;;;5.30;;
4597;SDS011;62772;48.646;8.906;2022-11-20T01:01:26;9.83;;;5.70;;
4597;SDS011;62772;48.646;8.906;2022-11-20T01:06:29;9.17;;;5.73;;
4597;SDS011;62772;48.646;8.906;2022-11-20T01:11:35;8.90;;;5.60;;
4597;SDS011;62772;48.646;8.906;2022-11-20T01:16:40;9.17;;;5.13;;
4597;SDS011;62772;48.646;8.906;2022-11-20T01:21:42;8.47;;;5.10;;
4597;SDS011;62772;48.646;8.906;2022-11-20T01:26:48;11.13;;;6.00;;
4597;SDS011;62772;48.646;8.906;2022-11-20T01:31:51;11.50;;;6.37;;
4597;SDS011;62772;48.646;8.906;2022-11-20T01:36:52;11.10;;;5.97;;
4597;SDS011;62772;48.646;8.906;2022-11-20T01:41:56;12.20;;;7.30;;
4597;SDS011;62772;48.646;8.906;2022-11-20T01:47:16;10.37;;;6.07;;
4597;SDS011;62772;48.646;8.906;2022-11-20T01:52:21;15.00;;;8.20;;
4597;SDS011;62772;48.646;8.906;2022-11-20T01:57:27;28.83;;;12.80;;
4597;SDS011;62772;48.646;8.906;2022-11-20T02:02:31;13.77;;;7.27;;
4597;SDS011;62772;48.646;8.906;2022-11-20T02:07:32;12.53;;;6.67;;
4597;SDS011;62772;48.646;8.906;2022-11-20T02:12:36;13.13;;;6.83;;
4597;SDS011;62772;48.646;8.906;2022-11-20T02:17:55;11.87;;;6.30;;
4597;SDS011;62772;48.646;8.906;2022-11-20T02:22:57;11.80;;;6.53;;
4597;SDS011;62772;48.646;8.906;2022-11-20T02:28:06;10.00;;;5.93;;
4597;SDS011;62772;48.646;8.906;2022-11-20T02:33:07;9.90;;;5.63;;
4597;SDS011;62772;48.646;8.906;2022-11-20T02:38:08;9.77;;;6.10;;
4597;SDS011;62772;48.646;8.906;2022-11-20T02:43:11;10.90;;;6.53;;
4597;SDS011;62772;48.646;8.906;2022-11-20T02:48:12;8.97;;;6.00;;
4597;SDS011;62772;48.646;8.906;2022-11-20T02:53:13;12.73;;;6.97;;
4597;SDS011;62772;48.646;8.906;2022-11-20T02:58:16;12.07;;;6.70;;
4597;SDS011;62772;48.646;8.906;2022-11-20T03:03:17;15.00;;;7.93;;
4597;SDS011;62772;48.646;8.906;2022-11-20T03:08:17;12.37;;;8.03;;
4597;SDS011;62772;48.646;8.906;2022-11-20T03:13:21;12.30;;;7.70;;
4597;SDS011;62772;48.646;8.906;2022-11-20T03:18:22;13.73;;;7.70;;
4597;SDS011;62772;48.646;8.906;2022-11-20T03:23:22;12.90;;;7.53;;
4597;SDS011;62772;48.646;8.906;2022-11-20T03:28:26;12.90;;;7.30;;
4597;SDS011;62772;48.646;8.906;2022-11-20T03:33:27;16.43;;;6.90;;
4597;SDS011;62772;48.646;8.906;2022-11-20T03:38:28;10.60;;;6.67;;
4597;SDS011;62772;48.646;8.906;2022-11-20T03:43:32;10.40;;;6.60;;
4597;SDS011;62772;48.646;8.906;2022-11-20T03:48:33;13.37;;;7.57;;
4597;SDS011;62772;48.646;8.906;2022-11-20T03:53:34;14.20;;;7.80;;
4597;SDS011;62772;48.646;8.906;2022-11-20T03:58:38;12.03;;;7.07;;
4597;SDS011;62772;48.646;8.906;2022-11-20T04:03:40;12.43;;;7.37;;
4597;SDS011;62772;48.646;8.906;2022-11-20T04:08:42;11.80;;;7.20;;
4597;SDS011;62772;48.646;8.906;2022-11-20T04:13:47;13.30;;;7.23;;
4597;SDS011;62772;48.646;8.906;2022-11-20T04:18:51;15.13;;;7.00;;
4597;SDS011;62772;48.646;8.906;2022-11-20T04:23:54;13.87;;;7.33;;
4597;SDS011;62772;48.646;8.906;2022-11-20T04:28:58;13.80;;;8.27;;
4597;SDS011;62772;48.646;8.906;2022-11-20T04:33:59;10.23;;;6.60;;
4597;SDS011;62772;48.646;8.906;2022-11-20T04:39:01;28.03;;;7.73;;
4597;SDS011;62772;48.646;8.906;2022-11-20T04:44:06;9.77;;;6.80;;
4597;SDS011;62772;48.646;8.906;2022-11-20T04:49:07;13.60;;;7.43;;
4597;SDS011;62772;48.646;8.906;2022-11-20T04:54:09;10.07;;;6.53;;
4597;SDS011;62772;48.646;8.906;2022-11-20T04:59:13;11.90;;;6.53;;
4597;SDS011;62772;48.646;8.906;2022-11-20T05:04:14;10.43;;;6.70;;
4597;SDS011;62772;48.646;8.906;2022-11-20T05:09:15;11.87;;;6.90;;
4597;SDS011;62772;48.646;8.906;2022-11-20T05:14:18;11.03;;;6.50;;
4597;SDS011;62772;48.646;8.906;2022-11-20T05:19:19;10.37;;;6.90;;
4597;SDS011;62772;48.646;8.906;2022-11-20T05:24:20;10.27;;;6.53;;
4597;SDS011;62772;48.646;8.906;2022-11-20T05:29:23;11.03;;;6.83;;
4597;SDS011;62772;48.646;8.906;2022-11-20T05:34:24;17.20;;;7.67;;
4597;SDS011;62772;48.646;8.906;2022-11-20T05:39:24;10.57;;;6.07;;
4597;SDS011;62772;48.646;8.906;2022-11-20T05:44:28;15.43;;;6.00;;
4597;SDS011;62772;48.646;8.906;2022-11-20T05:49:28;11.37;;;6.63;;
4597;SDS011;62772;48.646;8.906;2022-11-20T05:54:29;12.00;;;6.77;;
4597;SDS011;62772;48.646;8.906;2022-11-20T05:59:32;10.77;;;6.23;;
4597;SDS011;62772;48.646;8.906;2022-11-20T06:04:33;11.73;;;6.70;;
4597;SDS011;62772;48.646;8.906;2022-11-20T06:09:34;8.93;;;5.90;;
4597;SDS011;62772;48.646;8.906;2022-11-20T06:14:37;9.80;;;5.83;;
4597;SDS011;62772;48.646;8.906;2022-11-20T06:19:38;9.13;;;5.87;;
4597;SDS011;62772;48.646;8.906;2022-11-20T06:24:39;7.90;;;5.00;;
4597;SDS011;62772;48.646;8.906;2022-11-20T06:29:42;9.27;;;5.40;;
4597;SDS011;62772;48.646;8.906;2022-11-20T06:34:43;8.40;;;5.37;;
4597;SDS011;62772;48.646;8.906;2022-11-20T06:39:43;10.47;;;5.63;;
4597;SDS011;62772;48.646;8.906;2022-11-20T06:44:47;12.00;;;7.70;;
4597;SDS011;62772;48.646;8.906;2022-11-20T06:49:47;10.87;;;5.77;;
4597;SDS011;62772;48.646;8.906;2022-11-20T06:54:48;10.40;;;6.10;;
4597;SDS011;62772;48.646;8.906;2022-11-20T06:59:51;7.67;;;5.30;;
4597;SDS011;62772;48.646;8.906;2022-11-20T07:04:52;9.40;;;6.00;;
4597;SDS011;62772;48.646;8.906;2022-11-20T07:09:53;10.77;;;6.47;;
4597;SDS011;62772;48.646;8.906;2022-11-20T07:14:56;11.23;;;5.93;;
4597;SDS011;62772;48.646;8.906;2022-11-20T07:19:57;18.53;;;9.13;;
4597;SDS011;62772;48.646;8.906;2022-11-20T07:24:57;27.27;;;14.60;;
4597;SDS011;62772;48.646;8.906;2022-11-20T07:30:01;13.60;;;7.83;;
4597;SDS011;62772;48.646;8.906;2022-11-20T07:35:03;13.87;;;9.13;;
4597;SDS011;62772;48.646;8.906;2022-11-20T07:40:04;12.30;;;7.07;;
4597;SDS011;62772;48.646;8.906;2022-11-20T07:45:09;12.30;;;6.73;;
4597;SDS011;62772;48.646;8.906;2022-11-20T07:50:10;8.10;;;5.80;;
4597;SDS011;62772;48.646;8.906;2022-11-20T07:55:11;10.60;;;5.50;;
4597;SDS011;62772;48.646;8.906;2022-11-20T08:00:15;10.20;;;5.70;;
4597;SDS011;62772;48.646;8.906;2022-11-20T08:05:16;10.20;;;5.93;;
4597;SDS011;62772;48.646;8.906;2022-11-20T08:10:17;9.70;;;6.17;;
4597;SDS011;62772;48.646;8.906;2022-11-20T08:15:21;14.27;;;8.50;;
4597;SDS011;62772;48.646;8.906;2022-11-20T08:20:21;8.97;;;5.77;;
4597;SDS011;62772;48.646;8.906;2022-11-20T08:25:22;11.80;;;7.10;;
4597;SDS011;62772;48.646;8.906;2022-11-20T08:30:26;8.87;;;4.80;;
4597;SDS011;62772;48.646;8.906;2022-11-20T08:35:27;18.23;;;9.23;;
4597;SDS011;62772;48.646;8.906;2022-11-20T08:40:28;6.57;;;3.87;;
4597;SDS011;62772;48.646;8.906;2022-11-20T08:45:31;5.10;;;3.70;;
4597;SDS011;62772;48.646;8.906;2022-11-20T08:50:32;5.70;;;4.10;;
4597;SDS011;62772;48.646;8.906;2022-11-20T08:55:33;7.70;;;4.40;;
4597;SDS011;62772;48.646;8.906;2022-11-20T09:00:40;7.30;;;3.80;;
4597;SDS011;62772;48.646;8.906;2022-11-20T09:05:40;6.10;;;4.10;;
4597;SDS011;62772;48.646;8.906;2022-11-20T09:10:43;6.90;;;4.10;;
4597;SDS011;62772;48.646;8.906;2022-11-20T09:15:46;4.87;;;3.07;;
4597;SDS011;62772;48.646;8.906;2022-11-20T09:20:46;4.80;;;3.13;;
4597;SDS011;62772;48.646;8.906;2022-11-20T09:25:47;4.80;;;3.20;;
4597;SDS011;62772;48.646;8.906;2022-11-20T09:30:51;4.43;;;2.40;;
4597;SDS011;62772;48.646;8.906;2022-11-20T09:35:52;6.27;;;2.80;;
4597;SDS011;62772;48.646;8.906;2022-11-20T09:40:55;4.13;;;2.53;;
4597;SDS011;62772;48.646;8.906;2022-11-20T09:46:03;4.17;;;2.80;;
4597;SDS011;62772;48.646;8.906;2022-11-20T09:51:09;4.50;;;2.80;;
4597;SDS011;62772;48.646;8.906;2022-11-20T09:56:19;4.33;;;2.67;;
4597;SDS011;62772;48.646;8.906;2022-11-20T10:01:26;3.27;;;2.10;;
4597;SDS011;62772;48.646;8.906;2022-11-20T10:06:32;4.97;;;2.83;;
4597;SDS011;62772;48.646;8.906;2022-11-20T10:11:36;5.80;;;2.50;;
4597;SDS011;62772;48.646;8.906;2022-11-20T10:16:51;4.40;;;2.73;;
4597;SDS011;62772;48.646;8.906;2022-11-20T10:21:59;5.90;;;3.50;;
4597;SDS011;62772;48.646;8.906;2022-11-20T10:27:19;4.73;;;3.20;;
4597;SDS011;62772;48.646;8.906;2022-11-20T10:32:40;4.90;;;3.20;;
4597;SDS011;62772;48.646;8.906;2022-11-20T10:37:44;4.43;;;3.23;;
4597;SDS011;62772;48.646;8.906;2022-11-20T10:42:48;4.97;;;3.23;;
4597;SDS011;62772;48.646;8.906;2022-11-20T10:48:01;3.30;;;2.60;;
4597;SDS011;62772;48.646;8.906;2022-11-20T10:53:14;6.97;;;3.67;;
4597;SDS011;62772;48.646;8.906;2022-11-20T10:58:22;11.13;;;3.33;;
4597;SDS011;62772;48.646;8.906;2022-11-20T11:03:33;3.50;;;2.50;;
4597;SDS011;62772;48.646;8.906;2022-11-20T11:08:35;7.50;;;3.60;;
4597;SDS011;62772;48.646;8.906;2022-11-20T11:13:38;6.07;;;3.93;;
4597;SDS011;62772;48.646;8.906;2022-11-20T11:18:41;11.57;;;2.90;;
4597;SDS011;62772;48.646;8.906;2022-11-20T11:23:42;3.97;;;2.93;;
4597;SDS011;62772;48.646;8.906;2022-11-20T11:28:52;4.80;;;2.97;;
4597;SDS011;62772;48.646;8.906;2022-11-20T11:34:05;5.90;;;2.47;;
4597;SDS011;62772;48.646;8.906;2022-11-20T11:39:13;6.00;;;3.07;;
4597;SDS011;62772;48.646;8.906;2022-11-20T11:44:18;5.23;;;2.90;;
4597;SDS011;62772;48.646;8.906;2022-11-20T11:49:41;8.53;;;2.90;;
4597;SDS011;62772;48.646;8.906;2022-11-20T11:54:43;4.83;;;2.67;;
4597;SDS011;62772;48.646;8.906;2022-11-20T11:59:54;6.20;;;2.80;;
4597;SDS011;62772;48.646;8.906;2022-11-20T12:05:05;4.53;;;2.60;;
4597;SDS011;62772;48.646;8.906;2022-11-20T12:10:20;3.40;;;1.90;;
4597;SDS011;62772;48.646;8.906;2022-11-20T12:15:26;4.17;;;2.27;;
4597;SDS011;62772;48.646;8.906;2022-11-20T12:20:35;4.20;;;2.50;;
4597;SDS011;62772;48.646;8.906;2022-11-20T12:25:45;8.30;;;2.40;;
4597;SDS011;62772;48.646;8.906;2022-11-20T12:30:55;3.10;;;2.30;;
4597;SDS011;62772;48.646;8.906;2022-11-20T12:36:16;3.70;;;2.23;;
4597;SDS011;62772;48.646;8.906;2022-11-20T12:41:27;2.83;;;2.03;;
4597;SDS011;62772;48.646;8.906;2022-11-20T12:47:06;5.03;;;2.00;;
4597;SDS011;62772;48.646;8.906;2022-11-20T12:52:22;3.80;;;2.13;;
4597;SDS011;62772;48.646;8.906;2022-11-20T12:57:34;4.17;;;2.20;;
4597;SDS011;62772;48.646;8.906;2022-11-20T13:03:00;3.27;;;2.07;;
4597;SDS011;62772;48.646;8.906;2022-11-20T13:08:18;3.03;;;2.10;;
4597;SDS011;62772;48.646;8.906;2022-11-20T13:13:22;4.53;;;2.17;;
4597;SDS011;62772;48.646;8.906;2022-11-20T13:18:30;4.80;;;2.83;;
4597;SDS011;62772;48.646;8.906;2022-11-20T13:23:40;3.70;;;2.40;;
4597;SDS011;62772;48.646;8.906;2022-11-20T13:28:41;7.50;;;3.10;;
4597;SDS011;62772;48.646;8.906;2022-11-20T13:33:43;11.83;;;5.50;;
4597;SDS011;62772;48.646;8.906;2022-11-20T13:38:48;4.00;;;2.80;;
4597;SDS011;62772;48.646;8.906;2022-11-20T13:43:51;17.97;;;8.70;;
4597;SDS011;62772;48.646;8.906;2022-11-20T13:48:52;7.60;;;3.10;;
4597;SDS011;62772;48.646;8.906;2022-11-20T13:54:04;5.13;;;2.97;;
4597;SDS011;62772;48.646;8.906;2022-11-20T13:59:25;9.50;;;3.87;;
4597;SDS011;62772;48.646;8.906;2022-11-20T14:04:33;8.17;;;5.10;;
4597;SDS011;62772;48.646;8.906;2022-11-20T14:09:48;6.37;;;3.63;;
4597;SDS011;62772;48.646;8.906;2022-11-20T14:14:51;6.40;;;3.47;;
4597;SDS011;62772;48.646;8.906;2022-11-20T14:19:53;7.13;;;4.57;;
4597;SDS011;62772;48.646;8.906;2022-11-20T14:25:17;7.83;;;3.53;;
4597;SDS011;62772;48.646;8.906;2022-11-20T14:30:22;7.30;;;3.80;;
4597;SDS011;62772;48.646;8.906;2022-11-20T14:35:25;5.70;;;3.13;;
4597;SDS011;62772;48.646;8.906;2022-11-20T14:40:30;7.60;;;3.40;;
4597;SDS011;62772;48.646;8.906;2022-11-20T14:45:35;4.60;;;3.37;;
4597;SDS011;62772;48.646;8.906;2022-11-20T14:50:37;5.93;;;3.20;;
4597;SDS011;62772;48.646;8.906;2022-11-20T14:55:42;4.50;;;3.50;;
4597;SDS011;62772;48.646;8.906;2022-11-20T15:00:43;11.00;;;4.50;;
4597;SDS011;62772;48.646;8.906;2022-11-20T15:05:54;6.83;;;3.73;;
4597;SDS011;62772;48.646;8.906;2022-11-20T15:10:57;7.70;;;3.83;;
4597;SDS011;62772;48.646;8.906;2022-11-20T15:15:59;7.67;;;4.10;;
4597;SDS011;62772;48.646;8.906;2022-11-20T15:21:02;7.57;;;4.33;;
4597;SDS011;62772;48.646;8.906;2022-11-20T15:26:09;8.17;;;4.40;;
4597;SDS011;62772;48.646;8.906;2022-11-20T15:31:12;7.20;;;4.40;;
4597;SDS011;62772;48.646;8.906;2022-11-20T15:36:14;14.90;;;5.50;;
4597;SDS011;62772;48.646;8.906;2022-11-20T15:41:18;11.93;;;6.17;;
4597;SDS011;62772;48.646;8.906;2022-11-20T15:46:19;10.43;;;5.97;;
4597;SDS011;62772;48.646;8.906;2022-11-20T15:51:27;11.57;;;7.00;;
4597;SDS011;62772;48.646;8.906;2022-11-20T15:56:32;16.97;;;7.43;;
4597;SDS011;62772;48.646;8.906;2022-11-20T16:01:33;22.37;;;12.10;;
4597;SDS011;62772;48.646;8.906;2022-11-20T16:06:34;13.23;;;7.50;;
4597;SDS011;62772;48.646;8.906;2022-11-20T16:11:38;12.20;;;6.30;;
4597;SDS011;62772;48.646;8.906;2022-11-20T16:16:39;11.70;;;6.50;;
4597;SDS011;62772;48.646;8.906;2022-11-20T16:21:41;14.67;;;7.93;;
4597;SDS011;62772;48.646;8.906;2022-11-20T16:26:45;18.53;;;8.47;;
4597;SDS011;62772;48.646;8.906;2022-11-20T16:31:46;17.43;;;9.13;;
4597;SDS011;62772;48.646;8.906;2022-11-20T16:36:48;13.97;;;7.37;;
4597;SDS011;62772;48.646;8.906;2022-11-20T16:41:51;14.60;;;8.40;;
4597;SDS011;62772;48.646;8.906;2022-11-20T16:46:52;16.87;;;11.47;;
4597;SDS011;62772;48.646;8.906;2022-11-20T16:51:53;25.50;;;13.03;;
4597;SDS011;62772;48.646;8.906;2022-11-20T16:56:56;18.03;;;8.63;;
4597;SDS011;62772;48.646;8.906;2022-11-20T17:01:57;20.33;;;9.37;;
4597;SDS011;62772;48.646;8.906;2022-11-20T17:06:58;18.00;;;10.03;;
4597;SDS011;62772;48.646;8.906;2022-11-20T17:12:01;18.43;;;8.73;;
4597;SDS011;62772;48.646;8.906;2022-11-20T17:17:02;15.70;;;7.90;;
4597;SDS011;62772;48.646;8.906;2022-11-20T17:22:03;9.67;;;5.53;;
4597;SDS011;62772;48.646;8.906;2022-11-20T17:27:06;13.20;;;8.40;;
4597;SDS011;62772;48.646;8.906;2022-11-20T17:32:07;9.10;;;5.83;;
4597;SDS011;62772;48.646;8.906;2022-11-20T17:37:08;7.33;;;4.00;;
4597;SDS011;62772;48.646;8.906;2022-11-20T17:42:12;8.87;;;4.30;;
4597;SDS011;62772;48.646;8.906;2022-11-20T17:47:29;8.03;;;4.80;;
4597;SDS011;62772;48.646;8.906;2022-11-20T17:52:29;8.80;;;4.93;;
4597;SDS011;62772;48.646;8.906;2022-11-20T17:57:33;10.00;;;5.60;;
4597;SDS011;62772;48.646;8.906;2022-11-20T18:02:52;9.57;;;4.90;;
4597;SDS011;62772;48.646;8.906;2022-11-20T18:07:53;8.20;;;4.83;;
4597;SDS011;62772;48.646;8.906;2022-11-20T18:12:56;7.90;;;4.93;;
4597;SDS011;62772;48.646;8.906;2022-11-20T18:17:57;14.37;;;5.60;;
4597;SDS011;62772;48.646;8.906;2022-11-20T18:22:58;8.70;;;4.73;;
4597;SDS011;62772;48.646;8.906;2022-11-20T18:28:01;6.57;;;3.73;;
4597;SDS011;62772;48.646;8.906;2022-11-20T18:33:03;6.37;;;4.40;;
4597;SDS011;62772;48.646;8.906;2022-11-20T18:38:06;11.73;;;5.10;;
4597;SDS011;62772;48.646;8.906;2022-11-20T18:43:11;8.27;;;4.60;;
4597;SDS011;62772;48.646;8.906;2022-11-20T18:48:41;8.03;;;4.60;;
4597;SDS011;62772;48.646;8.906;2022-11-20T18:53:42;8.40;;;3.43;;
4597;SDS011;62772;48.646;8.906;2022-11-20T18:58:45;22.93;;;8.20;;
4597;SDS011;62772;48.646;8.906;2022-11-20T19:03:46;10.97;;;5.80;;
4597;SDS011;62772;48.646;8.906;2022-11-20T19:08:47;5.00;;;2.67;;
4597;SDS011;62772;48.646;8.906;2022-11-20T19:13:50;3.73;;;2.60;;
4597;SDS011;62772;48.646;8.906;2022-11-20T19:18:52;4.80;;;2.60;;
4597;SDS011;62772;48.646;8.906;2022-11-20T19:23:53;7.73;;;3.00;;
4597;SDS011;62772;48.646;8.906;2022-11-20T19:28:58;4.47;;;2.70;;
4597;SDS011;62772;48.646;8.906;2022-11-20T19:34:00;3.47;;;2.20;;
4597;SDS011;62772;48.646;8.906;2022-11-20T19:39:02;5.67;;;2.83;;
4597;SDS011;62772;48.646;8.906;2022-11-20T19:44:08;3.60;;;2.20;;
4597;SDS011;62772;48.646;8.906;2022-11-20T19:49:11;4.00;;;2.63;;
4597;SDS011;62772;48.646;8.906;2022-11-20T19:54:13;3.30;;;2.23;;
4597;SDS011;62772;48.646;8.906;2022-11-20T19:59:16;3.50;;;2.33;;
4597;SDS011;62772;48.646;8.906;2022-11-20T20:04:17;5.10;;;2.60;;
4597;SDS011;62772;48.646;8.906;2022-11-20T20:09:19;4.63;;;2.70;;
4597;SDS011;62772;48.646;8.906;2022-11-20T20:14:25;4.37;;;2.27;;
4597;SDS011;62772;48.646;8.906;2022-11-20T20:19:26;3.90;;;2.13;;
4597;SDS011;62772;48.646;8.906;2022-11-20T20:24:26;3.23;;;1.97;;
4597;SDS011;62772;48.646;8.906;2022-11-20T20:29:30;18.30;;;8.23;;
4597;SDS011;62772;48.646;8.906;2022-11-20T20:34:30;21.07;;;10.53;;
4597;SDS011;62772;48.646;8.906;2022-11-20T20:39:31;4.03;;;2.30;;
4597;SDS011;62772;48.646;8.906;2022-11-20T20:44:35;3.20;;;2.00;;
4597;SDS011;62772;48.646;8.906;2022-11-20T20:49:54;2.30;;;1.53;;
4597;SDS011;62772;48.646;8.906;2022-11-20T20:54:55;4.33;;;2.10;;
4597;SDS011;62772;48.646;8.906;2022-11-20T20:59:58;5.10;;;2.40;;
4597;SDS011;62772;48.646;8.906;2022-11-20T21:04:59;3.20;;;2.30;;
4597;SDS011;62772;48.646;8.906;2022-11-20T21:10:00;3.17;;;1.80;;
4597;SDS011;62772;48.646;8.906;2022-11-20T21:15:04;4.23;;;2.77;;
4597;SDS011;62772;48.646;8.906;2022-11-20T21:20:06;2.40;;;1.80;;
4597;SDS011;62772;48.646;8.906;2022-11-20T21:25:28;4.43;;;2.27;;
4597;SDS011;62772;48.646;8.906;2022-11-20T21:30:31;3.00;;;2.10;;
4597;SDS011;62772;48.646;8.906;2022-11-20T21:35:32;5.37;;;2.57;;
4597;SDS011;62772;48.646;8.906;2022-11-20T21:40:34;17.60;;;7.20;;
4597;SDS011;62772;48.646;8.906;2022-11-20T21:45:37;3.70;;;2.60;;
4597;SDS011;62772;48.646;8.906;2022-11-20T21:50:38;4.80;;;2.80;;
4597;SDS011;62772;48.646;8.906;2022-11-20T21:55:39;5.07;;;3.20;;
4597;SDS011;62772;48.646;8.906;2022-11-20T22:00:42;3.93;;;3.00;;
4597;SDS011;62772;48.646;8.906;2022-11-20T22:05:43;4.77;;;2.90;;
4597;SDS011;62772;48.646;8.906;2022-11-20T22:10:53;4.70;;;2.87;;
4597;SDS011;62772;48.646;8.906;2022-11-20T22:16:02;4.50;;;3.00;;
4597;SDS011;62772;48.646;8.906;2022-11-20T22:21:03;3.03;;;2.23;;
4597;SDS011;62772;48.646;8.906;2022-11-20T22:26:05;7.87;;;3.50;;
4597;SDS011;62772;48.646;8.906;2022-11-20T22:31:10;4.73;;;3.00;;
4597;SDS011;62772;48.646;8.906;2022-11-20T22:36:12;3.60;;;2.40;;
4597;SDS011;62772;48.646;8.906;2022-11-20T22:41:17;3.67;;;2.03;;
4597;SDS011;62772;48.646;8.906;2022-11-20T22:46:22;2.83;;;1.67;;
4597;SDS011;62772;48.646;8.906;2022-11-20T22:51:24;2.73;;;1.70;;
4597;SDS011;62772;48.646;8.906;2022-11-20T22:56:26;2.40;;;1.67;;
4597;SDS011;62772;48.646;8.906;2022-11-20T23:01:29;2.50;;;1.57;;
4597;SDS011;62772;48.646;8.906;2022-11-20T23:06:31;3.30;;;1.60;;
4597;SDS011;62772;48.646;8.906;2022-11-20T23:11:34;3.70;;;2.20;;
4597;SDS011;62772;48.646;8.906;2022-11-20T23:16:37;5.40;;;2.67;;
4597;SDS011;62772;48.646;8.906;2022-11-20T23:21:39;4.13;;;2.23;;
4597;SDS011;62772;48.646;8.906;2022-11-20T23:26:41;3.23;;;1.90;;
4597;SDS011;62772;48.646;8.906;2022-11-20T23:31:46;3.50;;;1.80;;
4597;SDS011;62772;48.646;8.906;2022-11-20T23:36:47;3.07;;;2.10;;
4597;SDS011;62772;48.646;8.906;2022-11-20T23:41:48;4.20;;;2.20;;
4597;SDS011;62772;48.646;8.906;2022-11-20T23:46:51;2.87;;;1.67;;
4597;SDS011;62772;48.646;8.906;2022-11-20T23:51:52;4.13;;;2.30;;
4597;SDS011;62772;48.646;8.906;2022-11-20T23:56:52;3.90;;;2.33;;
